Time;durP1;ratioP1;P1;durP2;ratioP2;P2;SDS_P1;SDS_P2;PMS_P1;PMS_P2;Temp;Humidity;BMP_temperature;BMP_pressure;BME280_temperature;BME280_humidity;BME280_pressure;Samples;Min_cycle;Max_cycle;Signal;HPM_P1;HPM_P2
2020/12/31 00:02:01;;;;;;;20.90;13.40;;;;;;;3.92;100.00;99081.44;5061119;28;20232;-30
2020/12/31 00:04:48;;;;;;;21.70;13.60;;;;;;;3.87;100.00;99080.59;5060383;28;20197;-30
2020/12/31 00:07:34;;;;;;;17.53;12.83;;;;;;;3.92;100.00;99081.44;5059030;28;20204;-30
2020/12/31 00:10:19;;;;;;;20.50;13.73;;;;;;;4.10;100.00;99076.28;5059518;28;20192;-30
2020/12/31 00:13:08;;;;;;;20.47;11.83;;;;;;;3.77;100.00;99072.94;5059168;28;20494;-30
2020/12/31 00:15:57;;;;;;;16.80;12.23;;;;;;;3.93;100.00;99071.19;5058912;28;20204;-30
2020/12/31 00:18:44;;;;;;;18.87;12.77;;;;;;;3.91;100.00;99069.50;5059134;28;20212;-30
2020/12/31 00:21:30;;;;;;;24.73;13.77;;;;;;;4.06;100.00;99069.47;5058573;28;20227;-30
2020/12/31 00:24:17;;;;;;;19.93;12.97;;;;;;;3.88;100.00;99070.34;5059261;28;20195;-30
2020/12/31 00:27:05;;;;;;;15.67;10.70;;;;;;;4.00;100.00;99064.34;5059097;28;20539;-30
2020/12/31 00:29:51;;;;;;;16.87;11.80;;;;;;;4.26;100.00;99071.97;5058857;28;20686;-30
2020/12/31 00:32:37;;;;;;;19.33;12.10;;;;;;;4.18;100.00;99066.91;5058822;28;20204;-30
2020/12/31 00:35:30;;;;;;;18.13;10.33;;;;;;;4.19;100.00;99066.03;5058422;28;20351;-30
2020/12/31 00:38:18;;;;;;;16.50;10.07;;;;;;;4.13;100.00;99064.34;5059033;28;20208;-30
2020/12/31 00:41:05;;;;;;;11.97;9.00;;;;;;;4.27;100.00;99063.44;5058249;28;20601;-30
2020/12/31 00:43:53;;;;;;;12.80;9.03;;;;;;;4.25;100.00;99065.16;5058676;28;20258;-30
2020/12/31 00:46:40;;;;;;;14.23;10.50;;;;;;;4.22;100.00;99060.03;5058496;28;20533;-31
2020/12/31 00:49:26;;;;;;;14.60;9.97;;;;;;;4.36;100.00;99059.16;5057882;28;20587;-30
2020/12/31 00:52:14;;;;;;;10.20;8.83;;;;;;;4.23;100.00;99067.72;5058594;28;20646;-30
2020/12/31 00:55:04;;;;;;;11.07;8.57;;;;;;;4.22;100.00;99070.28;5058508;28;20196;-30
2020/12/31 00:57:51;;;;;;;11.70;8.70;;;;;;;4.18;100.00;99061.78;5058191;28;20201;-30
2020/12/31 01:00:38;;;;;;;14.13;10.13;;;;;;;4.36;100.00;99065.97;5058305;28;20228;-30
2020/12/31 01:03:24;;;;;;;14.37;9.70;;;;;;;4.54;100.00;99062.50;5058723;28;20201;-30
2020/12/31 01:06:10;;;;;;;10.93;8.50;;;;;;;4.24;100.00;99064.28;5057744;28;20266;-30
2020/12/31 01:08:57;;;;;;;13.30;9.63;;;;;;;4.46;100.00;99065.06;5057738;28;20267;-30
2020/12/31 01:11:43;;;;;;;11.60;8.57;;;;;;;4.39;100.00;99064.28;5058375;28;20205;-30
2020/12/31 01:14:29;;;;;;;10.83;7.70;;;;;;;4.50;100.00;99061.66;5062447;28;20263;-30
2020/12/31 01:17:16;;;;;;;13.53;9.03;;;;;;;4.35;100.00;99060.00;5062707;28;20233;-30
2020/12/31 01:20:03;;;;;;;9.73;8.00;;;;;;;4.29;100.00;99060.03;5064992;28;20220;-30
2020/12/31 01:22:49;;;;;;;10.60;7.90;;;;;;;4.43;100.00;99065.09;5062006;28;20240;-30
2020/12/31 01:25:36;;;;;;;9.37;7.67;;;;;;;4.28;100.00;99054.91;5051633;28;20241;-30
2020/12/31 01:28:22;;;;;;;9.90;8.00;;;;;;;4.37;100.00;99053.19;5041157;28;20348;-30
2020/12/31 01:31:08;;;;;;;9.93;7.77;;;;;;;4.58;100.00;99052.25;5061508;28;20590;-30
2020/12/31 01:33:59;;;;;;;11.60;8.17;;;;;;;4.48;100.00;99058.25;5060942;28;20208;-30
2020/12/31 01:36:45;;;;;;;9.33;7.50;;;;;;;4.52;100.00;99053.97;5060560;28;20223;-30
2020/12/31 01:39:31;;;;;;;9.93;7.40;;;;;;;4.31;100.00;99055.75;5061065;28;20312;-30
2020/12/31 01:42:18;;;;;;;9.77;7.47;;;;;;;4.19;100.00;99062.63;5061008;28;20224;-30
2020/12/31 01:45:05;;;;;;;9.77;7.50;;;;;;;4.30;100.00;99054.03;5060649;28;20195;-30
2020/12/31 01:47:50;;;;;;;8.13;6.93;;;;;;;4.14;100.00;99062.63;5061308;28;20194;-30
2020/12/31 01:50:37;;;;;;;9.30;7.47;;;;;;;4.31;100.00;99063.44;5061758;28;20196;-30
2020/12/31 01:53:23;;;;;;;10.17;7.30;;;;;;;4.32;100.00;99062.56;5061173;28;20286;-30
2020/12/31 01:56:12;;;;;;;10.57;7.87;;;;;;;4.20;100.00;99060.03;5062893;28;20610;-31
2020/12/31 01:58:59;;;;;;;9.17;6.53;;;;;;;4.17;100.00;99059.22;5062963;28;20207;-30
2020/12/31 02:01:46;;;;;;;9.67;7.23;;;;;;;4.24;100.00;99054.06;5061776;28;20224;-30
2020/12/31 02:04:32;;;;;;;9.50;7.43;;;;;;;4.27;100.00;99063.44;5061185;28;20283;-30
2020/12/31 02:07:20;;;;;;;12.77;7.13;;;;;;;4.26;100.00;99052.34;5060790;28;20209;-30
2020/12/31 02:10:06;;;;;;;9.63;6.80;;;;;;;4.26;100.00;99059.19;5060903;28;20201;-31
2020/12/31 02:12:55;;;;;;;7.73;6.90;;;;;;;4.14;100.00;99060.06;5062169;28;20200;-30
2020/12/31 02:15:42;;;;;;;8.50;6.97;;;;;;;4.27;100.00;99059.16;5061021;28;20221;-30
2020/12/31 02:18:28;;;;;;;9.57;7.10;;;;;;;4.15;100.00;99056.66;5060865;28;20545;-30
2020/12/31 02:21:18;;;;;;;9.73;6.97;;;;;;;4.17;100.00;99057.50;5060620;28;20629;-30
2020/12/31 02:24:07;;;;;;;7.83;6.33;;;;;;;4.21;100.00;99056.63;5060055;28;20214;-30
2020/12/31 02:26:53;;;;;;;8.53;6.70;;;;;;;4.20;100.00;99059.22;5060738;28;20531;-30
2020/12/31 02:29:39;;;;;;;8.43;6.90;;;;;;;4.28;100.00;99055.75;5045753;28;20200;-30
2020/12/31 02:32:26;;;;;;;7.80;6.57;;;;;;;4.08;100.00;99054.97;5060691;28;20224;-30
2020/12/31 02:35:12;;;;;;;16.03;7.83;;;;;;;4.35;100.00;99069.41;5060325;28;20232;-30
2020/12/31 02:37:58;;;;;;;7.83;6.37;;;;;;;4.15;100.00;99054.09;5060809;28;20209;-30
2020/12/31 02:40:45;;;;;;;8.67;7.00;;;;;;;4.26;100.00;99057.47;5060439;28;20268;-30
2020/12/31 02:43:31;;;;;;;8.40;6.63;;;;;;;4.25;100.00;99047.22;5060373;28;20598;-30
2020/12/31 02:46:20;;;;;;;7.53;6.67;;;;;;;4.24;100.00;99048.09;5060091;28;20204;-30
2020/12/31 02:49:06;;;;;;;9.33;6.60;;;;;;;4.06;100.00;99046.44;5060233;28;20212;-30
2020/12/31 02:51:53;;;;;;;8.87;6.50;;;;;;;4.01;100.00;99048.16;5060288;28;20263;-31
2020/12/31 02:54:38;;;;;;;10.17;6.63;;;;;;;4.03;100.00;99052.41;5060618;28;20464;-30
2020/12/31 02:57:26;;;;;;;9.30;7.13;;;;;;;4.10;100.00;99049.00;5060485;28;20196;-30
2020/12/31 03:00:11;;;;;;;11.03;7.90;;;;;;;4.20;100.00;99046.41;5063402;28;20629;-30
2020/12/31 03:02:57;;;;;;;11.27;7.93;;;;;;;4.00;100.00;99044.72;5061841;28;20208;-30
2020/12/31 03:05:44;;;;;;;7.83;6.43;;;;;;;3.87;100.00;99047.34;5059709;28;20592;-30
2020/12/31 03:08:30;;;;;;;8.83;7.73;;;;;;;3.77;100.00;99041.41;5059405;28;20196;-30
2020/12/31 03:11:19;;;;;;;10.23;7.83;;;;;;;3.97;100.00;99047.31;5059814;28;20216;-30
2020/12/31 03:14:06;;;;;;;10.93;7.93;;;;;;;3.77;100.00;99036.28;5059688;28;20196;-30
2020/12/31 03:16:52;;;;;;;10.63;8.70;;;;;;;3.80;100.00;99044.78;5059973;28;20591;-30
2020/12/31 03:19:38;;;;;;;12.10;8.87;;;;;;;3.66;100.00;99046.50;5059742;28;20201;-30
2020/12/31 03:22:25;;;;;;;12.93;8.77;;;;;;;3.63;100.00;99031.16;5059816;28;20290;-30
2020/12/31 03:25:11;;;;;;;11.53;9.00;;;;;;;3.75;100.00;99033.72;5059720;28;20224;-30
2020/12/31 03:27:56;;;;;;;10.30;8.13;;;;;;;3.67;100.00;99032.00;5059288;28;20207;-30
2020/12/31 03:30:46;;;;;;;10.93;8.53;;;;;;;3.78;100.00;99023.50;5059328;28;20263;-30
2020/12/31 03:33:32;;;;;;;11.63;8.50;;;;;;;3.73;100.00;99022.63;5059200;28;20251;-30
2020/12/31 03:36:18;;;;;;;13.13;9.67;;;;;;;3.78;100.00;99025.19;5058461;28;20306;-31
2020/12/31 03:39:04;;;;;;;11.43;8.93;;;;;;;3.75;100.00;99020.94;5059833;28;20201;-31
2020/12/31 03:41:50;;;;;;;13.37;9.17;;;;;;;3.61;100.00;99012.41;5058966;28;20219;-31
2020/12/31 03:44:36;;;;;;;13.40;9.13;;;;;;;3.66;100.00;99007.31;5059485;28;20208;-30
2020/12/31 03:47:24;;;;;;;12.93;9.57;;;;;;;3.69;100.00;99003.03;5059176;28;20195;-30
2020/12/31 03:50:10;;;;;;;10.30;8.67;;;;;;;3.61;100.00;99001.34;5059410;28;20204;-31
2020/12/31 03:52:56;;;;;;;10.77;8.67;;;;;;;3.65;100.00;98996.22;5059208;28;20853;-30
2020/12/31 03:55:42;;;;;;;13.33;9.50;;;;;;;3.79;100.00;98994.50;5058918;28;20482;-30
2020/12/31 03:58:28;;;;;;;12.97;9.37;;;;;;;3.79;100.00;98998.78;5059179;28;20263;-30
2020/12/31 04:01:14;;;;;;;14.43;9.40;;;;;;;3.85;100.00;98990.22;5059897;28;20294;-30
2020/12/31 04:04:02;;;;;;;11.33;8.43;;;;;;;3.84;100.00;98986.81;5059421;28;20196;-31
2020/12/31 04:06:49;;;;;;;12.57;9.13;;;;;;;3.79;100.00;98989.41;5058949;28;20217;-30
2020/12/31 04:09:35;;;;;;;13.23;9.60;;;;;;;3.99;100.00;98989.34;5057981;28;20259;-31
2020/12/31 04:12:22;;;;;;;11.57;9.37;;;;;;;3.94;100.00;98982.53;5058223;28;20488;-31
2020/12/31 04:15:08;;;;;;;12.00;9.43;;;;;;;3.85;100.00;98974.88;5058383;28;20540;-30
2020/12/31 04:17:55;;;;;;;10.03;8.10;;;;;;;3.86;100.00;98977.41;5057905;28;20243;-31
2020/12/31 04:20:44;;;;;;;11.83;9.17;;;;;;;3.92;100.00;98974.00;5057830;28;20298;-31
2020/12/31 04:23:30;;;;;;;10.67;9.03;;;;;;;4.04;100.00;98977.34;5057948;28;20602;-30
2020/12/31 04:26:16;;;;;;;10.67;8.63;;;;;;;3.87;100.00;98971.44;5057902;28;20239;-31
2020/12/31 04:29:02;;;;;;;13.93;9.60;;;;;;;4.08;100.00;98966.25;5058000;28;20193;-30
2020/12/31 04:31:48;;;;;;;12.07;9.80;;;;;;;4.25;100.00;98967.91;5057803;28;20197;-31
2020/12/31 04:34:34;;;;;;;10.67;8.63;;;;;;;4.12;100.00;98959.44;5058317;28;20343;-31
2020/12/31 04:37:21;;;;;;;11.70;9.23;;;;;;;4.05;100.00;98962.88;5057725;28;20205;-31
2020/12/31 04:40:07;;;;;;;12.07;9.13;;;;;;;4.17;100.00;98952.59;5057842;28;20258;-31
2020/12/31 04:42:53;;;;;;;14.93;9.90;;;;;;;4.28;100.00;98950.81;5058379;28;20286;-31
2020/12/31 04:45:42;;;;;;;15.37;9.67;;;;;;;4.33;100.00;98953.38;5057968;28;20258;-31
2020/12/31 04:48:38;;;;;;;11.33;9.17;;;;;;;4.20;100.00;98959.41;5060378;28;20208;-30
2020/12/31 04:51:26;;;;;;;10.17;8.47;;;;;;;4.36;100.00;98950.78;5061734;28;20235;-30
2020/12/31 04:54:14;;;;;;;10.37;8.03;;;;;;;4.35;100.00;98965.31;5061139;28;20211;-31
2020/12/31 04:57:02;;;;;;;12.23;9.07;;;;;;;4.29;100.00;98960.22;5061907;28;20267;-30
2020/12/31 04:59:48;;;;;;;10.03;8.00;;;;;;;4.14;100.00;98961.13;5061753;28;20312;-30
2020/12/31 05:02:35;;;;;;;12.93;9.07;;;;;;;4.42;100.00;98966.94;5061650;28;20286;-31
2020/12/31 05:05:21;;;;;;;10.23;8.67;;;;;;;4.33;100.00;98966.16;5061556;28;20193;-30
2020/12/31 05:08:07;;;;;;;12.83;9.60;;;;;;;4.39;100.00;98971.25;5061460;28;20201;-31
2020/12/31 05:10:55;;;;;;;9.97;8.23;;;;;;;4.25;100.00;98961.06;5060938;28;20211;-31
2020/12/31 05:13:45;;;;;;;11.27;8.03;;;;;;;4.27;100.00;98969.59;5061080;28;20259;-30
2020/12/31 05:16:31;;;;;;;11.83;9.73;;;;;;;4.18;100.00;98968.81;5060910;28;20196;-31
2020/12/31 05:19:23;;;;;;;10.40;9.20;;;;;;;4.23;100.00;98972.16;5061007;28;20196;-31
2020/12/31 05:22:13;;;;;;;11.57;8.97;;;;;;;4.12;100.00;98977.34;5061105;28;20228;-31
2020/12/31 05:25:00;;;;;;;10.63;8.60;;;;;;;4.15;100.00;98965.41;5060778;28;20346;-31
2020/12/31 05:27:46;;;;;;;11.03;8.70;;;;;;;4.12;100.00;98985.03;5061191;28;20200;-30
2020/12/31 05:30:32;;;;;;;10.73;8.57;;;;;;;4.13;100.00;98969.66;5061046;28;20220;-31
2020/12/31 05:33:26;;;;;;;9.93;7.97;;;;;;;4.18;100.00;98976.47;5060973;28;20197;-30
2020/12/31 05:36:18;;;;;;;11.73;7.90;;;;;;;4.00;100.00;98972.25;5063441;28;20244;-30
2020/12/31 05:39:05;;;;;;;9.33;8.37;;;;;;;4.19;100.00;98976.47;5067940;28;20200;-30
2020/12/31 05:41:51;;;;;;;12.87;8.83;;;;;;;3.88;100.00;98970.59;5067666;28;20228;-30
2020/12/31 05:44:58;;;;;;;10.47;8.27;;;;;;;4.18;100.00;98976.47;5066486;28;20196;-30
2020/12/31 05:47:49;;;;;;;10.00;8.57;;;;;;;4.07;100.00;98971.38;5063396;28;20274;-31
2020/12/31 05:50:36;;;;;;;10.13;8.80;;;;;;;4.15;100.00;98978.19;5063249;28;20201;-31
2020/12/31 05:53:23;;;;;;;10.27;8.07;;;;;;;4.00;100.00;98975.66;5061036;28;20262;-31
2020/12/31 05:56:12;;;;;;;9.10;8.20;;;;;;;4.21;100.00;98982.41;5060680;28;20298;-30
2020/12/31 05:59:12;;;;;;;12.50;8.87;;;;;;;4.20;100.00;98983.25;5067790;28;20712;-31
2020/12/31 06:02:00;;;;;;;10.97;8.73;;;;;;;4.03;100.00;98985.03;5069342;28;20769;-30
2020/12/31 06:04:47;;;;;;;10.80;8.53;;;;;;;4.03;100.00;98982.47;5066556;28;20196;-31
2020/12/31 06:07:43;;;;;;;9.60;7.83;;;;;;;4.09;100.00;98982.47;5066570;28;20196;-30
2020/12/31 06:10:31;;;;;;;13.87;9.07;;;;;;;4.18;100.00;98985.00;5064079;28;20205;-31
2020/12/31 06:13:30;;;;;;;10.17;8.17;;;;;;;3.95;100.00;98979.13;5063400;28;20200;-31
2020/12/31 06:16:17;;;;;;;11.23;7.20;;;;;;;4.02;100.00;98984.19;5062340;28;20203;-30
2020/12/31 06:19:29;;;;;;;10.43;7.83;;;;;;;4.14;100.00;98979.03;5061913;28;20273;-31
2020/12/31 06:22:15;;;;;;;10.57;7.80;;;;;;;4.00;100.00;98985.03;5061153;28;20220;-31
2020/12/31 06:25:05;;;;;;;10.87;7.63;;;;;;;3.78;100.00;98982.56;5060792;28;20243;-31
2020/12/31 06:27:55;;;;;;;12.20;8.70;;;;;;;4.11;100.00;98991.00;5061195;28;20201;-31
2020/12/31 06:30:45;;;;;;;8.67;7.43;;;;;;;4.17;100.00;98980.75;5060895;28;20207;-30
2020/12/31 06:33:34;;;;;;;12.07;8.77;;;;;;;4.00;100.00;98985.03;5060646;28;20197;-30
2020/12/31 06:36:23;;;;;;;9.23;7.97;;;;;;;3.88;100.00;98985.09;5060094;28;20251;-31
2020/12/31 06:39:19;;;;;;;10.03;7.60;;;;;;;3.84;100.00;98983.38;5059942;28;20303;-30
2020/12/31 06:42:05;;;;;;;11.60;8.07;;;;;;;3.99;100.00;98988.50;5060240;28;20236;-30
2020/12/31 06:44:51;;;;;;;8.20;7.23;;;;;;;3.85;100.00;98982.53;5060511;28;20200;-30
2020/12/31 06:47:37;;;;;;;9.13;7.60;;;;;;;3.92;100.00;98982.53;5060338;28;20290;-30
2020/12/31 06:50:58;;;;;;;9.97;7.30;;;;;;;3.95;100.00;98990.19;5060847;28;20258;-31
2020/12/31 06:53:46;;;;;;;9.13;7.57;;;;;;;3.84;100.00;98991.06;5059955;28;20263;-30
2020/12/31 06:56:44;;;;;;;9.17;7.87;;;;;;;3.86;100.00;98984.25;5062089;28;20209;-30
2020/12/31 06:59:32;;;;;;;8.17;7.13;;;;;;;3.90;100.00;98993.63;5060891;28;20259;-30
2020/12/31 07:02:22;;;;;;;9.57;7.90;;;;;;;3.83;100.00;98994.47;5060029;28;20561;-31
2020/12/31 07:05:19;;;;;;;11.80;8.57;;;;;;;3.86;100.00;98995.31;5058999;28;20192;-30
2020/12/31 07:08:04;;;;;;;9.93;7.17;;;;;;;3.66;100.00;98990.25;5058796;28;20669;-30
2020/12/31 07:10:51;;;;;;;8.17;6.47;;;;;;;3.58;100.00;98996.25;5059286;28;21014;-30
2020/12/31 07:13:40;;;;;;;8.17;6.87;;;;;;;3.71;100.00;98995.38;5059784;28;20204;-31
2020/12/31 07:16:45;;;;;;;9.67;7.53;;;;;;;4.03;100.00;98997.81;5060704;28;20258;-30
2020/12/31 07:19:38;;;;;;;8.33;7.43;;;;;;;3.78;100.00;99000.47;5060365;28;20188;-31
2020/12/31 07:22:26;;;;;;;8.27;7.47;;;;;;;3.81;100.00;98997.03;5059549;28;20247;-31
2020/12/31 07:25:13;;;;;;;11.60;8.23;;;;;;;3.85;100.00;98995.31;5058049;28;20241;-31
2020/12/31 07:28:03;;;;;;;10.20;7.93;;;;;;;3.97;100.00;98992.75;5058399;28;20610;-30
2020/12/31 07:30:55;;;;;;;11.37;8.10;;;;;;;3.81;100.00;98995.31;5058171;28;20212;-31
2020/12/31 07:33:41;;;;;;;10.40;8.50;;;;;;;3.71;100.00;98996.22;5061803;28;20244;-31
2020/12/31 07:36:28;;;;;;;12.93;8.80;;;;;;;3.81;100.00;98994.47;5059105;28;20204;-31
2020/12/31 07:39:14;;;;;;;9.93;8.07;;;;;;;3.77;100.00;98995.38;5059097;28;20204;-31
2020/12/31 07:42:14;;;;;;;9.33;7.17;;;;;;;3.91;100.00;99003.00;5058607;28;20227;-31
2020/12/31 07:45:01;;;;;;;9.23;7.50;;;;;;;4.00;100.00;98997.84;5058653;28;20292;-31
2020/12/31 07:47:50;;;;;;;9.00;6.93;;;;;;;3.84;100.00;98996.19;5059338;28;20271;-31
2020/12/31 07:50:37;;;;;;;9.80;8.33;;;;;;;3.86;100.00;98997.88;5058672;28;20286;-31
2020/12/31 07:53:24;;;;;;;8.10;7.13;;;;;;;3.89;100.00;98997.03;5058925;28;20255;-30
2020/12/31 07:56:12;;;;;;;12.53;8.23;;;;;;;3.90;100.00;98998.72;5058026;28;20196;-31
2020/12/31 07:59:01;;;;;;;8.50;7.10;;;;;;;3.71;100.00;99000.47;5058139;28;20205;-31
2020/12/31 08:01:49;;;;;;;7.40;6.40;;;;;;;3.74;100.00;99005.59;5057696;28;20321;-31
2020/12/31 08:04:35;;;;;;;7.27;6.47;;;;;;;3.60;100.00;99003.03;5058163;28;20350;-30
2020/12/31 08:07:24;;;;;;;9.00;6.30;;;;;;;3.83;100.00;99004.72;5058145;28;20258;-31
2020/12/31 08:10:17;;;;;;;7.03;5.80;;;;;;;3.60;100.00;99005.59;5059011;28;20200;-31
2020/12/31 08:13:05;;;;;;;6.03;5.43;;;;;;;3.47;100.00;98999.66;5059508;28;20258;-31
2020/12/31 08:15:52;;;;;;;8.57;5.80;;;;;;;3.75;100.00;99004.75;5058141;28;20211;-31
2020/12/31 08:18:39;;;;;;;7.80;5.90;;;;;;;3.71;100.00;99005.59;5061224;28;20292;-32
2020/12/31 08:21:26;;;;;;;6.80;5.90;;;;;;;3.57;100.00;98997.09;5058498;28;20204;-31
2020/12/31 08:24:18;;;;;;;7.03;5.10;;;;;;;3.47;100.00;99007.31;5059369;28;20204;-31
2020/12/31 08:27:04;;;;;;;7.10;6.30;;;;;;;3.72;100.00;99000.47;5024820;28;20268;-31
2020/12/31 08:29:54;;;;;;;6.20;5.60;;;;;;;3.75;100.00;99000.47;5038051;28;20259;-31
2020/12/31 08:32:55;;;;;;;6.63;5.70;;;;;;;3.99;100.00;99004.69;5037723;28;20224;-31
2020/12/31 08:35:43;;;;;;;6.60;5.87;;;;;;;3.83;100.00;99005.56;5037886;28;20200;-31
2020/12/31 08:38:36;;;;;;;5.93;5.33;;;;;;;3.95;100.00;98997.88;5038055;28;20655;-31
2020/12/31 08:41:22;;;;;;;6.50;5.90;;;;;;;4.08;100.00;99001.22;5038723;28;20201;-31
2020/12/31 08:44:12;;;;;;;7.03;6.23;;;;;;;4.15;100.00;99008.03;5038402;28;20218;-31
2020/12/31 08:46:58;;;;;;;6.27;5.60;;;;;;;3.90;100.00;99006.41;5037870;28;20201;-31
2020/12/31 08:49:51;;;;;;;6.17;5.40;;;;;;;3.89;100.00;98999.59;5037796;28;20369;-31
2020/12/31 08:52:37;;;;;;;6.83;6.10;;;;;;;3.95;100.00;99005.53;5037438;28;20228;-30
2020/12/31 08:55:24;;;;;;;6.30;5.70;;;;;;;4.04;100.00;99002.09;5037535;28;20295;-31
2020/12/31 08:58:17;;;;;;;5.57;5.07;;;;;;;3.94;100.00;99006.41;5038022;28;20356;-31
2020/12/31 09:01:04;;;;;;;5.77;5.20;;;;;;;3.97;100.00;99003.00;5039155;28;20222;-31
2020/12/31 09:03:50;;;;;;;5.90;5.30;;;;;;;4.03;100.00;98995.28;5018630;28;20257;-31
2020/12/31 09:06:41;;;;;;;5.40;4.73;;;;;;;3.76;100.00;99004.75;5019462;28;20195;-31
2020/12/31 09:09:40;;;;;;;5.47;4.97;;;;;;;4.01;100.00;99008.06;5018136;28;20202;-31
2020/12/31 09:12:36;;;;;;;5.67;5.17;;;;;;;4.24;100.00;99002.88;5017847;28;20196;-31
2020/12/31 09:15:22;;;;;;;6.60;5.97;;;;;;;4.22;100.00;98998.63;5017932;28;20641;-31
2020/12/31 09:18:16;;;;;;;6.53;5.80;;;;;;;3.94;100.00;99003.00;5020120;28;20202;-31
2020/12/31 09:21:03;;;;;;;7.57;5.57;;;;;;;4.20;100.00;98997.81;5018407;28;20487;-31
2020/12/31 09:23:52;;;;;;;6.50;5.47;;;;;;;3.99;100.00;99009.81;5017709;28;20202;-31
2020/12/31 09:26:52;;;;;;;5.97;5.37;;;;;;;4.01;100.00;99004.66;5035704;28;20237;-31
2020/12/31 09:29:38;;;;;;;5.90;5.30;;;;;;;4.07;100.00;99005.50;5037241;28;20350;-31
2020/12/31 09:32:25;;;;;;;5.90;4.83;;;;;;;3.97;100.00;99010.66;5038024;28;20212;-31
2020/12/31 09:35:11;;;;;;;6.53;5.87;;;;;;;4.03;100.00;99011.47;5042601;28;20225;-31
2020/12/31 09:37:59;;;;;;;6.47;5.83;;;;;;;4.24;100.00;99010.56;5041905;28;20209;-31
2020/12/31 09:40:45;;;;;;;4.73;4.33;;;;;;;4.07;100.00;99013.16;5040508;28;20668;-31
2020/12/31 09:43:32;;;;;;;5.13;4.63;;;;;;;4.08;100.00;99003.78;5040131;28;20639;-31
2020/12/31 09:46:19;;;;;;;5.50;4.77;;;;;;;4.37;100.00;99001.97;5040266;28;20201;-31
2020/12/31 09:49:06;;;;;;;5.23;4.73;;;;;;;4.45;100.00;99004.50;5057813;28;20206;-31
2020/12/31 09:51:52;;;;;;;4.93;4.43;;;;;;;4.23;100.00;99003.72;5060704;28;20592;-30
2020/12/31 09:54:38;;;;;;;4.23;3.80;;;;;;;4.19;100.00;99002.06;5063242;28;20204;-31
2020/12/31 09:57:25;;;;;;;4.83;4.43;;;;;;;4.36;100.00;98992.59;5060250;28;20241;-30
2020/12/31 10:00:12;;;;;;;4.87;4.43;;;;;;;4.30;100.00;98996.88;5059915;28;20202;-30
2020/12/31 10:03:01;;;;;;;5.20;4.53;;;;;;;4.14;100.00;98996.09;5058422;28;20249;-31
2020/12/31 10:05:49;;;;;;;4.13;3.73;;;;;;;4.15;100.00;98997.81;5059314;28;20218;-31
2020/12/31 10:08:35;;;;;;;4.53;4.13;;;;;;;4.45;100.00;98997.66;5060348;28;20345;-30
2020/12/31 10:11:23;;;;;;;3.77;3.47;;;;;;;4.37;100.00;98990.91;5060425;28;20206;-30
2020/12/31 10:14:10;;;;;;;3.87;3.47;;;;;;;4.16;100.00;98986.72;5061898;28;20190;-31
2020/12/31 10:16:57;;;;;;;5.40;4.07;;;;;;;4.81;100.00;98985.50;5059694;28;20206;-31
2020/12/31 10:19:42;;;;;;;3.43;3.13;;;;;;;4.30;100.00;98981.53;5059189;28;20348;-31
2020/12/31 10:22:28;;;;;;;3.70;3.40;;;;;;;4.27;100.00;98977.28;5059752;28;20226;-31
2020/12/31 10:25:14;;;;;;;3.90;3.50;;;;;;;4.45;100.00;98981.44;5059828;28;20248;-30
2020/12/31 10:28:00;;;;;;;3.77;3.47;;;;;;;4.60;100.00;98975.38;5061467;28;20249;-30
2020/12/31 10:30:47;;;;;;;3.93;3.63;;;;;;;4.85;100.00;98975.22;5060817;28;20201;-31
2020/12/31 10:33:34;;;;;;;4.10;3.80;;;;;;;5.42;100.00;98977.34;5059571;28;20313;-31
2020/12/31 10:36:21;;;;;;;3.77;3.47;;;;;;;4.89;100.00;98962.41;5059292;28;20616;-31
2020/12/31 10:39:08;;;;;;;3.80;3.50;;;;;;;5.34;100.00;98967.19;5059816;28;20729;-31
2020/12/31 10:41:55;;;;;;;3.93;3.53;;;;;;;4.82;100.00;98965.00;5058472;28;20219;-31
2020/12/31 10:44:42;;;;;;;3.70;3.40;;;;;;;4.99;100.00;98958.94;5058984;28;20246;-31
2020/12/31 10:47:29;;;;;;;3.30;3.10;;;;;;;4.64;100.00;98949.75;5058899;28;20345;-30
2020/12/31 10:50:17;;;;;;;3.73;3.43;;;;;;;5.02;100.00;98951.19;5060116;28;20249;-31
2020/12/31 10:53:04;;;;;;;3.80;3.50;;;;;;;4.87;100.00;98949.59;5059314;28;20197;-31
2020/12/31 10:55:50;;;;;;;3.37;3.07;;;;;;;4.45;100.00;98946.47;5060204;28;20485;-30
2020/12/31 10:58:36;;;;;;;3.50;3.20;;;;;;;4.71;100.00;98945.47;5059425;28;20210;-30
2020/12/31 11:01:22;;;;;;;5.17;3.60;;;;;;;4.79;100.00;98956.50;5059378;28;20202;-30
2020/12/31 11:04:09;;;;;;;4.43;3.20;;;;;;;4.46;100.00;98943.03;5057789;28;20325;-30
2020/12/31 11:06:56;;;;;;;3.90;3.60;;;;;;;4.55;100.00;98946.41;5059873;28;20251;-30
2020/12/31 11:09:42;;;;;;;3.63;3.33;;;;;;;4.52;100.00;98946.44;5058981;28;20202;-30
2020/12/31 11:12:28;;;;;;;3.47;3.17;;;;;;;4.59;100.00;98941.28;5060409;28;20199;-30
2020/12/31 11:15:17;;;;;;;2.90;2.70;;;;;;;4.70;100.00;98942.03;5061492;28;20210;-30
2020/12/31 11:18:04;;;;;;;2.67;2.47;;;;;;;4.50;100.00;98951.56;5059057;28;20204;-30
2020/12/31 11:20:53;;;;;;;3.50;3.20;;;;;;;4.80;100.00;98941.09;5059040;28;20665;-30
2020/12/31 11:23:40;;;;;;;4.07;2.70;;;;;;;4.84;100.00;98944.50;5059289;28;20238;-30
2020/12/31 11:26:27;;;;;;;3.03;2.83;;;;;;;4.56;100.00;98948.97;5057751;28;20260;-31
2020/12/31 11:29:13;;;;;;;3.63;3.33;;;;;;;4.77;100.00;98938.59;5060498;28;20465;-31
2020/12/31 11:32:00;;;;;;;3.00;2.80;;;;;;;4.98;100.00;98935.03;5059358;28;20296;-30
2020/12/31 11:34:47;;;;;;;3.63;3.33;;;;;;;5.14;100.00;98934.03;5060593;28;20254;-31
2020/12/31 11:37:33;;;;;;;3.00;2.80;;;;;;;5.03;100.00;98928.13;5059923;28;20602;-30
2020/12/31 11:40:22;;;;;;;3.57;3.27;;;;;;;5.33;100.00;98932.13;5058517;28;20202;-30
2020/12/31 11:43:07;;;;;;;4.03;3.43;;;;;;;5.07;100.00;98926.38;5058735;28;20700;-31
2020/12/31 11:45:53;;;;;;;3.47;3.17;;;;;;;5.05;100.00;98920.41;5058353;28;20210;-30
2020/12/31 11:48:40;;;;;;;3.50;2.90;;;;;;;5.24;100.00;98918.53;5057925;28;20264;-30
2020/12/31 11:51:26;;;;;;;3.13;2.90;;;;;;;5.50;100.00;98922.56;5057964;28;20555;-30
2020/12/31 11:54:12;;;;;;;3.37;3.07;;;;;;;5.13;100.00;98905.84;5059889;28;20694;-30
2020/12/31 11:57:04;;;;;;;3.00;2.70;;;;;;;5.19;100.00;98901.53;5057367;28;20489;-30
2020/12/31 11:59:50;;;;;;;3.07;2.63;;;;;;;5.01;100.00;98911.91;5058172;28;20317;-30
2020/12/31 12:02:37;;;;;;;2.20;2.10;;;;;;;4.81;100.00;98904.38;5059966;28;20644;-30
2020/12/31 12:05:23;;;;;;;2.43;2.23;;;;;;;4.76;100.00;98906.16;5060368;28;20203;-30
2020/12/31 12:08:09;;;;;;;1.70;1.60;;;;;;;4.69;100.00;98901.06;5057965;28;20204;-30
2020/12/31 12:10:56;;;;;;;2.03;1.93;;;;;;;4.88;100.00;98900.06;5058165;28;20288;-30
2020/12/31 12:13:43;;;;;;;2.00;1.90;;;;;;;4.86;100.00;98906.91;5058030;28;20319;-29
2020/12/31 12:16:29;;;;;;;1.87;1.77;;;;;;;4.68;100.00;98901.94;5057598;28;20205;-30
2020/12/31 12:19:16;;;;;;;2.13;2.03;;;;;;;4.62;100.00;98894.28;5057413;28;20218;-30
2020/12/31 12:22:02;;;;;;;2.00;1.90;;;;;;;4.83;100.00;98909.50;5057465;28;20199;-31
2020/12/31 12:24:50;;;;;;;1.80;1.70;;;;;;;4.89;100.00;98906.03;5059116;28;20242;-31
2020/12/31 12:27:36;;;;;;;1.97;1.80;;;;;;;4.91;100.00;98900.06;5057863;28;20207;-30
2020/12/31 12:30:24;;;;;;;2.00;1.90;;;;;;;4.64;100.00;98898.53;5057951;28;20211;-30
2020/12/31 12:33:10;;;;;;;2.07;1.87;;;;;;;4.71;100.00;98904.47;5058317;28;20202;-30
2020/12/31 12:35:56;;;;;;;2.00;1.90;;;;;;;4.63;100.00;98903.66;5057692;28;20276;-30
2020/12/31 12:38:43;;;;;;;2.27;2.17;;;;;;;4.74;100.00;98899.34;5061324;28;20622;-30
2020/12/31 12:41:29;;;;;;;2.13;2.03;;;;;;;4.43;100.00;98898.69;5057702;28;20206;-31
2020/12/31 12:44:15;;;;;;;2.13;1.93;;;;;;;4.58;100.00;98898.59;5061251;28;20279;-30
2020/12/31 12:47:03;;;;;;;2.10;2.00;;;;;;;4.45;100.00;98900.38;5057512;28;20214;-30
2020/12/31 12:49:49;;;;;;;2.13;1.97;;;;;;;4.42;100.00;98899.53;5060273;28;20255;-30
2020/12/31 12:52:37;;;;;;;2.03;1.93;;;;;;;4.63;100.00;98901.09;5057231;28;20265;-30
2020/12/31 12:55:24;;;;;;;3.20;2.07;;;;;;;4.64;100.00;98895.97;5057491;28;20485;-30
2020/12/31 12:58:10;;;;;;;1.87;1.77;;;;;;;4.43;100.00;98902.09;5059828;28;20201;-30
2020/12/31 13:00:55;;;;;;;2.30;2.20;;;;;;;4.63;100.00;98903.66;5060019;28;20251;-30
2020/12/31 13:03:45;;;;;;;2.63;2.43;;;;;;;4.80;100.00;98905.25;5057343;28;20391;-30
2020/12/31 13:06:35;;;;;;;2.50;2.40;;;;;;;4.76;100.00;98907.88;5058513;28;20205;-30